createdAt,value
2019-06-10T00:00:23.474Z,4.50
2019-06-10T00:02:51.688Z,3.87
2019-06-10T00:05:21.591Z,4.40
2019-06-10T00:07:51.618Z,4.77
2019-06-10T00:10:21.438Z,3.93
2019-06-10T00:12:51.428Z,4.07
2019-06-10T00:15:21.415Z,4.30
2019-06-10T00:17:59.319Z,4.10
2019-06-10T00:20:21.587Z,4.20
2019-06-10T00:22:51.525Z,4.43
2019-06-10T00:25:21.008Z,4.20
2019-06-10T00:27:51.177Z,3.93
2019-06-10T00:30:20.919Z,3.97
2019-06-10T00:32:51.397Z,4.20
2019-06-10T00:35:21.090Z,4.30
2019-06-10T00:37:51.211Z,4.10
2019-06-10T00:40:21.318Z,4.17
2019-06-10T00:42:50.755Z,3.97
2019-06-10T00:45:21.451Z,3.90
2019-06-10T00:47:50.761Z,4.50
2019-06-10T00:50:18.748Z,4.67
2019-06-10T00:52:46.974Z,4.20
2019-06-10T00:55:15.208Z,4.13
2019-06-10T00:57:43.507Z,4.30
2019-06-10T01:00:19.242Z,3.77
2019-06-10T01:02:42.764Z,4.10
2019-06-10T01:05:12.481Z,4.37
2019-06-10T01:07:41.512Z,3.90
2019-06-10T01:10:12.815Z,3.87
2019-06-10T01:12:40.739Z,4.07
2019-06-10T01:15:10.106Z,4.27
2019-06-10T01:17:41.577Z,4.60
2019-06-10T01:20:10.679Z,4.03
2019-06-10T01:22:41.026Z,3.90
2019-06-10T01:25:12.008Z,3.83
2019-06-10T01:27:40.888Z,4.10
2019-06-10T01:30:17.955Z,3.97
2019-06-10T01:32:41.683Z,4.10
2019-06-10T01:35:11.542Z,4.27
2019-06-10T01:37:41.418Z,4.03
2019-06-10T01:40:12.971Z,4.30
2019-06-10T01:42:41.291Z,4.43
2019-06-10T01:45:11.521Z,4.03
2019-06-10T01:47:41.517Z,4.10
2019-06-10T01:50:11.900Z,3.97
2019-06-10T01:52:41.114Z,3.90
2019-06-10T01:55:12.209Z,4.23
2019-06-10T01:57:41.266Z,4.10
2019-06-10T02:00:15.546Z,4.47
2019-06-10T02:02:44.724Z,4.77
2019-06-10T02:05:13.274Z,3.93
2019-06-10T02:07:41.066Z,4.30
2019-06-10T02:10:11.799Z,4.43
2019-06-10T02:12:41.438Z,4.13
2019-06-10T02:15:11.832Z,4.30
2019-06-10T02:17:41.733Z,4.20
2019-06-10T02:20:10.672Z,4.10
2019-06-10T02:22:41.129Z,4.07
2019-06-10T02:25:10.970Z,4.67
2019-06-10T02:27:41.503Z,4.40
2019-06-10T02:30:18.885Z,5.00
2019-06-10T02:32:42.587Z,4.47
2019-06-10T02:35:15.665Z,4.33
2019-06-10T02:37:44.094Z,4.30
2019-06-10T02:40:10.239Z,4.07
2019-06-10T02:42:43.666Z,4.50
2019-06-10T02:45:17.371Z,4.53
2019-06-10T02:47:44.410Z,4.60
2019-06-10T02:50:16.201Z,3.93
2019-06-10T02:52:44.305Z,4.10
2019-06-10T02:55:14.067Z,4.40
2019-06-10T02:57:44.699Z,4.27
2019-06-10T03:00:20.717Z,4.37
2019-06-10T03:02:44.946Z,5.07
2019-06-10T03:05:14.230Z,4.43
2019-06-10T03:07:44.316Z,4.57
2019-06-10T03:10:13.685Z,4.50
2019-06-10T03:12:42.906Z,4.30
2019-06-10T03:15:12.581Z,4.20
2019-06-10T03:17:42.979Z,4.40
2019-06-10T03:20:12.285Z,4.80
2019-06-10T03:22:42.306Z,4.27
2019-06-10T03:25:13.137Z,4.80
2019-06-10T03:27:42.409Z,5.10
2019-06-10T03:30:17.141Z,4.97
2019-06-10T03:32:46.503Z,4.70
2019-06-10T03:35:13.246Z,4.97
2019-06-10T03:37:42.366Z,4.90
2019-06-10T03:40:13.076Z,6.50
2019-06-10T03:42:42.784Z,5.80
2019-06-10T03:45:12.671Z,5.50
2019-06-10T03:47:42.722Z,5.83
2019-06-10T03:50:13.231Z,6.67
2019-06-10T03:52:43.143Z,5.70
2019-06-10T03:55:12.253Z,6.10
2019-06-10T04:00:11.333Z,6.60
2019-06-10T04:02:39.971Z,6.80
2019-06-10T04:05:08.345Z,7.37
2019-06-10T04:07:36.556Z,7.33
2019-06-10T04:10:06.311Z,7.13
2019-06-10T04:12:34.743Z,7.40
2019-06-10T04:15:03.280Z,7.23
2019-06-10T04:17:33.321Z,7.93
2019-06-10T04:20:09.198Z,7.80
2019-06-10T04:22:32.924Z,8.03
2019-06-10T04:25:02.992Z,7.80
2019-06-10T04:27:32.839Z,7.57
2019-06-10T04:30:03.249Z,8.00
2019-06-10T04:32:32.344Z,7.77
2019-06-10T04:35:02.308Z,7.73
2019-06-10T04:37:32.451Z,7.73
2019-06-10T04:40:02.830Z,8.10
2019-06-10T04:42:32.787Z,8.00
2019-06-10T04:45:02.940Z,8.10
2019-06-10T04:47:33.087Z,7.90
2019-06-10T04:50:02.927Z,8.60
2019-06-10T04:52:32.907Z,8.30
2019-06-10T04:55:02.549Z,8.00
2019-06-10T04:57:32.772Z,7.90
2019-06-10T05:00:04.086Z,8.00
2019-06-10T05:02:33.037Z,8.67
2019-06-10T05:05:02.937Z,8.70
2019-06-10T05:07:34.168Z,8.47
2019-06-10T05:10:03.131Z,7.90
2019-06-10T05:12:32.755Z,8.30
2019-06-10T05:15:03.266Z,8.10
2019-06-10T05:17:33.538Z,8.47
2019-06-10T05:20:02.554Z,8.07
2019-06-10T05:22:32.812Z,8.80
2019-06-10T05:25:02.452Z,8.60
2019-06-10T05:27:32.928Z,8.10
2019-06-10T05:30:02.321Z,7.50
2019-06-10T05:32:33.147Z,7.90
2019-06-10T05:35:03.295Z,7.47
2019-06-10T05:37:31.631Z,7.77
2019-06-10T05:40:02.267Z,8.30
2019-06-10T05:42:33.544Z,8.00
2019-06-10T05:45:00.099Z,8.07
2019-06-10T05:47:30.716Z,7.33
2019-06-10T05:49:58.334Z,7.67
2019-06-10T05:52:27.632Z,7.50
2019-06-10T05:54:56.498Z,7.67
2019-06-10T05:57:25.798Z,7.27
2019-06-10T05:59:54.054Z,7.40
2019-06-10T06:02:22.705Z,8.57
2019-06-10T06:04:53.056Z,7.70
2019-06-10T06:07:22.277Z,7.40
2019-06-10T06:09:53.157Z,7.67
2019-06-10T06:12:22.617Z,7.70
2019-06-10T06:14:52.615Z,8.07
2019-06-10T06:17:20.475Z,7.43
2019-06-10T06:19:48.717Z,7.70
2019-06-10T06:22:17.079Z,7.40
2019-06-10T06:24:45.264Z,7.60
2019-06-10T06:27:13.522Z,7.40
2019-06-10T06:29:43.157Z,6.80
2019-06-10T06:32:13.225Z,7.60
2019-06-10T06:34:43.124Z,7.07
2019-06-10T06:37:12.725Z,6.77
2019-06-10T06:39:42.932Z,6.80
2019-06-10T06:42:12.704Z,6.40
2019-06-10T06:44:43.320Z,6.70
2019-06-10T06:47:13.065Z,6.23
2019-06-10T06:49:42.566Z,5.77
2019-06-10T06:52:12.779Z,6.33
2019-06-10T06:54:42.511Z,6.00
2019-06-10T06:57:12.919Z,6.30
2019-06-10T06:59:43.066Z,6.30
2019-06-10T07:02:12.355Z,6.80
2019-06-10T07:04:43.172Z,6.57
2019-06-10T07:07:13.201Z,6.87
2019-06-10T07:09:43.344Z,6.27
2019-06-10T07:12:13.052Z,6.70
2019-06-10T07:14:44.986Z,6.07
2019-06-10T07:17:12.734Z,6.17
2019-06-10T07:19:43.741Z,5.47
2019-06-10T07:22:13.483Z,6.23
2019-06-10T07:24:46.376Z,6.10
2019-06-10T07:27:12.947Z,7.00
2019-06-10T07:29:45.366Z,6.53
2019-06-10T07:32:12.422Z,6.10
2019-06-10T07:34:44.132Z,6.30
2019-06-10T07:37:12.921Z,6.20
2019-06-10T07:39:41.722Z,6.70
2019-06-10T07:42:10.548Z,6.20
2019-06-10T07:44:39.046Z,6.03
2019-06-10T07:47:07.440Z,6.40
2019-06-10T07:49:37.194Z,6.37
2019-06-10T07:52:15.765Z,6.33
2019-06-10T07:54:36.292Z,6.70
2019-06-10T07:57:05.325Z,6.70
2019-06-10T07:59:35.403Z,6.50
2019-06-10T08:02:03.794Z,6.67
2019-06-10T08:04:33.562Z,6.30
2019-06-10T08:07:03.401Z,6.47
2019-06-10T08:09:35.693Z,6.90
2019-06-10T08:12:06.009Z,6.23
2019-06-10T08:14:33.509Z,7.00
2019-06-10T08:17:03.127Z,6.80
2019-06-10T08:19:38.261Z,6.90
2019-06-10T08:22:02.892Z,6.67
2019-06-10T08:24:32.886Z,6.30
2019-06-10T08:27:02.720Z,6.80
2019-06-10T08:29:32.989Z,6.80
2019-06-10T08:32:03.328Z,6.60
2019-06-10T08:34:32.948Z,6.40
2019-06-10T08:37:04.221Z,6.93
2019-06-10T08:39:33.302Z,6.60
2019-06-10T08:42:02.974Z,6.67
2019-06-10T08:44:32.803Z,6.57
2019-06-10T08:47:02.950Z,7.20
2019-06-10T08:49:32.572Z,6.90
2019-06-10T08:52:02.792Z,7.47
2019-06-10T08:54:32.441Z,7.00
2019-06-10T08:57:03.418Z,6.90
2019-06-10T08:59:32.562Z,6.90
2019-06-10T09:02:02.940Z,6.80
2019-06-10T09:04:32.936Z,7.10
2019-06-10T09:07:03.314Z,7.70
2019-06-10T09:09:32.866Z,9.50
2019-06-10T09:12:00.345Z,8.10
2019-06-10T09:14:28.597Z,8.27
2019-06-10T09:16:57.683Z,7.13
2019-06-10T09:19:25.878Z,6.90
2019-06-10T09:21:56.443Z,7.57
2019-06-10T09:24:24.978Z,8.17
2019-06-10T09:26:54.959Z,7.60
2019-06-10T09:29:24.411Z,7.30
2019-06-10T09:31:55.547Z,9.20
2019-06-10T09:34:23.764Z,9.00
2019-06-10T09:36:56.652Z,7.50
2019-06-10T09:39:23.113Z,6.83
2019-06-10T09:42:00.292Z,9.30
2019-06-10T09:44:22.880Z,8.70
2019-06-10T09:46:55.805Z,7.60
2019-06-10T09:49:22.492Z,8.37
2019-06-10T09:51:55.954Z,8.07
2019-06-10T09:54:22.805Z,7.20
2019-06-10T09:56:54.585Z,7.30
2019-06-10T09:59:23.521Z,7.50
2019-06-10T10:01:57.597Z,8.00
2019-06-10T10:04:23.575Z,7.70
2019-06-10T10:06:57.170Z,7.43
2019-06-10T10:09:23.278Z,7.87
2019-06-10T10:11:55.268Z,7.53
2019-06-10T10:14:23.065Z,7.63
2019-06-10T10:16:58.831Z,8.40
2019-06-10T10:19:23.134Z,7.80
2019-06-10T10:21:57.706Z,8.63
2019-06-10T10:24:23.003Z,7.50
2019-06-10T10:26:57.162Z,8.00
2019-06-10T10:29:22.272Z,8.33
2019-06-10T10:31:52.407Z,7.67
2019-06-10T10:34:22.846Z,8.47
2019-06-10T10:36:54.933Z,8.37
2019-06-10T10:39:22.025Z,8.00
2019-06-10T10:41:51.966Z,10.27
2019-06-10T10:44:20.110Z,32.50
2019-06-10T10:46:49.308Z,26.47
2019-06-10T10:49:17.621Z,23.80
2019-06-10T10:51:47.004Z,10.70
2019-06-10T10:54:29.351Z,8.73
2019-06-10T10:56:47.760Z,8.87
2019-06-10T10:59:16.106Z,9.40
2019-06-10T11:01:45.743Z,8.60
2019-06-10T11:04:14.313Z,9.50
2019-06-10T11:06:44.336Z,8.23
2019-06-10T11:09:13.131Z,8.33
2019-06-10T11:11:44.041Z,8.80
2019-06-10T11:14:14.997Z,8.70
2019-06-10T11:16:43.098Z,9.10
2019-06-10T11:19:12.970Z,9.20
2019-06-10T11:21:43.154Z,9.07
2019-06-10T11:24:14.287Z,8.60
2019-06-10T11:26:43.172Z,9.60
2019-06-10T11:29:11.440Z,8.80
2019-06-10T11:31:42.307Z,9.23
2019-06-10T11:34:09.650Z,9.07
2019-06-10T11:36:37.844Z,8.60
2019-06-10T11:39:06.904Z,9.50
2019-06-10T11:41:35.096Z,9.90
2019-06-10T11:44:03.473Z,9.30
2019-06-10T11:46:32.608Z,8.27
2019-06-10T11:49:03.824Z,9.33
2019-06-10T11:51:33.033Z,9.40
2019-06-10T11:54:03.224Z,9.10
2019-06-10T11:56:33.661Z,9.67
2019-06-10T11:59:08.931Z,9.50
2019-06-10T12:01:32.960Z,10.00
2019-06-10T12:04:04.154Z,9.73
2019-06-10T12:06:33.379Z,9.50
2019-06-10T12:09:02.944Z,9.60
2019-06-10T12:11:31.893Z,9.60
2019-06-10T12:14:04.369Z,10.37
2019-06-10T12:17:15.421Z,9.60
2019-06-10T12:19:03.398Z,9.70
2019-06-10T12:21:33.028Z,9.90
2019-06-10T12:24:02.835Z,10.17
2019-06-10T12:26:33.479Z,9.50
2019-06-10T12:29:05.259Z,9.97
2019-06-10T12:31:34.508Z,9.50
2019-06-10T12:34:03.273Z,9.60
2019-06-10T12:36:32.820Z,9.43
2019-06-10T12:39:07.860Z,9.60
2019-06-10T12:41:33.162Z,9.40
2019-06-10T12:44:03.325Z,9.20
2019-06-10T12:46:32.740Z,10.50
2019-06-10T12:49:03.922Z,9.10
2019-06-10T12:51:32.701Z,9.53
2019-06-10T12:54:04.799Z,8.80
2019-06-10T12:56:32.790Z,9.80
2019-06-10T12:59:06.694Z,10.30
2019-06-10T13:01:32.969Z,9.40
2019-06-10T13:04:04.374Z,8.87
2019-06-10T13:06:32.537Z,9.90
2019-06-10T13:09:03.715Z,8.43
2019-06-10T13:11:33.394Z,8.90
2019-06-10T13:14:04.058Z,8.97
2019-06-10T13:16:32.069Z,8.87
2019-06-10T13:19:03.269Z,8.50
2019-06-10T13:21:32.833Z,8.80
2019-06-10T13:24:03.672Z,8.50
2019-06-10T13:26:32.976Z,8.30
2019-06-10T13:29:05.005Z,8.37
2019-06-10T13:31:33.711Z,8.87
2019-06-10T13:34:05.425Z,8.90
2019-06-10T13:36:33.114Z,9.17
2019-06-10T13:39:04.105Z,9.47
2019-06-10T13:41:33.402Z,9.13
2019-06-10T13:44:02.087Z,9.40
2019-06-10T13:46:32.955Z,8.80
2019-06-10T13:49:02.053Z,9.10
2019-06-10T13:51:32.371Z,8.97
2019-06-10T13:54:01.165Z,8.80
2019-06-10T13:56:43.225Z,9.53
2019-06-10T13:59:01.074Z,9.27
2019-06-10T14:01:34.956Z,8.80
2019-06-10T14:04:08.256Z,9.30
2019-06-10T14:06:43.662Z,8.48
2019-06-10T14:09:01.558Z,8.78
2019-06-10T14:11:33.146Z,9.50
2019-06-10T14:14:01.250Z,9.13
2019-06-10T14:16:32.893Z,7.95
2019-06-10T14:19:01.437Z,8.48
2019-06-10T14:21:30.078Z,7.50
2019-06-10T14:23:58.273Z,7.80
2019-06-10T14:26:37.926Z,8.05
2019-06-10T14:28:56.400Z,7.87
2019-06-10T14:31:39.561Z,8.28
2019-06-10T14:33:54.517Z,7.58
2019-06-10T14:36:22.723Z,7.55
2019-06-10T14:38:50.945Z,7.60
2019-06-10T14:41:19.140Z,7.58
2019-06-10T14:43:47.333Z,8.13
2019-06-10T14:46:17.455Z,7.92
2019-06-10T14:48:45.456Z,7.28
2019-06-10T14:51:15.776Z,7.90
2019-06-10T14:53:43.637Z,8.45
2019-06-10T14:56:14.870Z,8.55
2019-06-10T14:58:42.451Z,8.63
2019-06-10T15:01:13.420Z,8.93
2019-06-10T15:03:42.869Z,8.63
2019-06-10T15:06:11.371Z,8.83
2019-06-10T15:08:39.773Z,9.30
2019-06-10T15:11:08.064Z,9.13
2019-06-10T15:13:36.282Z,9.18
2019-06-10T15:16:04.699Z,8.40
2019-06-10T15:18:33.144Z,8.75
2019-06-10T15:21:02.733Z,8.45
2019-06-10T15:23:32.455Z,7.50
2019-06-10T15:26:02.913Z,7.85
2019-06-10T15:28:30.848Z,7.85
2019-06-10T15:30:59.073Z,9.03
2019-06-10T15:33:27.414Z,8.73
2019-06-10T15:35:55.613Z,8.50
2019-06-10T15:38:23.838Z,7.90
2019-06-10T15:40:53.184Z,7.50
2019-06-10T15:43:23.402Z,7.75
2019-06-10T15:45:52.814Z,7.00
2019-06-10T17:27:03.282Z,10.60
2019-06-10T17:29:33.471Z,10.70
2019-06-10T17:32:02.805Z,9.20
2019-06-10T17:34:33.628Z,10.40
2019-06-10T17:37:03.093Z,9.93
2019-06-10T17:39:33.886Z,10.07
2019-06-10T17:42:01.110Z,9.83
2019-06-10T17:44:30.774Z,9.20
2019-06-10T17:46:59.321Z,9.87
2019-06-10T17:49:28.669Z,10.50
2019-06-10T17:51:57.601Z,9.60
2019-06-10T17:54:26.867Z,8.87
2019-06-10T17:56:55.191Z,9.30
2019-06-10T17:59:24.089Z,9.70
2019-06-10T18:01:53.535Z,9.55
2019-06-10T18:04:22.598Z,10.10
2019-06-10T18:06:52.894Z,10.45
2019-06-10T18:09:23.130Z,10.30
2019-06-10T18:11:51.369Z,9.93
2019-06-10T18:14:19.584Z,10.67
2019-06-10T18:16:47.792Z,10.47
2019-06-10T18:19:16.124Z,10.03
2019-06-10T18:21:44.336Z,10.45
2019-06-10T18:24:12.862Z,10.70
2019-06-10T18:26:42.398Z,11.93
2019-06-10T18:29:12.826Z,11.20
2019-06-10T18:31:42.709Z,11.70
2019-06-10T18:34:12.966Z,11.83
2019-06-10T18:36:42.567Z,11.60
2019-06-10T18:39:12.375Z,11.77
2019-06-10T18:41:41.874Z,12.60
2019-06-10T18:44:19.882Z,11.73
2019-06-10T18:46:42.602Z,11.93
2019-06-10T18:49:13.275Z,12.83
2019-06-10T18:51:43.221Z,13.33
2019-06-10T18:54:12.874Z,12.93
2019-06-10T18:56:42.905Z,12.90
2019-06-10T18:59:17.956Z,13.53
2019-06-10T19:01:42.344Z,14.07
2019-06-10T19:04:12.945Z,13.70
2019-06-10T19:06:42.945Z,13.70
2019-06-10T19:09:12.779Z,14.10
2019-06-10T19:11:43.130Z,13.70
2019-06-10T19:14:12.790Z,13.83
2019-06-10T19:16:42.790Z,14.10
2019-06-10T19:19:12.516Z,13.97
2019-06-10T19:21:41.192Z,14.50
2019-06-10T19:24:12.788Z,14.67
2019-06-10T19:26:44.774Z,14.33
2019-06-10T19:29:10.366Z,15.70
2019-06-10T19:31:39.831Z,15.10
2019-06-10T19:34:08.527Z,15.33
2019-06-10T19:36:37.712Z,15.13
2019-06-10T19:39:06.536Z,15.87
2019-06-10T19:41:38.132Z,15.83
2019-06-10T19:44:04.702Z,15.93
2019-06-10T19:46:34.224Z,16.20
2019-06-10T19:49:06.827Z,15.20
2019-06-10T19:51:34.211Z,16.37
2019-06-10T19:54:03.543Z,15.73
2019-06-10T19:56:33.068Z,16.60
2019-06-10T19:59:01.438Z,17.30
2019-06-10T20:01:29.650Z,16.43
2019-06-10T20:03:57.893Z,17.57
2019-06-10T20:06:26.122Z,17.53
2019-06-10T20:08:54.355Z,18.47
2019-06-10T20:11:22.975Z,18.40
2019-06-10T20:13:53.103Z,17.53
2019-06-10T20:16:21.290Z,18.73
2019-06-10T20:18:49.882Z,18.63
2019-06-10T20:21:18.143Z,19.53
2019-06-10T20:23:47.694Z,18.43
2019-06-10T20:26:16.261Z,17.50
2019-06-10T20:28:46.700Z,19.07
2019-06-10T20:31:14.396Z,19.47
2019-06-10T20:33:43.230Z,19.20
2019-06-10T20:36:21.087Z,19.60
2019-06-10T20:38:46.407Z,19.63
2019-06-10T20:41:12.697Z,20.00
2019-06-10T20:43:43.566Z,19.80
2019-06-10T20:46:12.956Z,19.70
2019-06-10T20:48:43.973Z,19.50
2019-06-10T20:51:12.866Z,19.43
2019-06-10T20:53:43.194Z,19.67
2019-06-10T20:56:12.465Z,20.77
2019-06-10T20:58:42.963Z,20.07
2019-06-10T21:01:10.757Z,19.33
2019-06-10T21:03:39.126Z,20.87
2019-06-10T21:06:09.013Z,19.77
2019-06-10T21:08:37.897Z,21.23
2019-06-10T21:11:06.146Z,21.50
2019-06-10T21:13:34.406Z,22.00
2019-06-10T21:16:03.590Z,21.70
2019-06-10T21:18:32.969Z,21.47
2019-06-10T21:21:01.539Z,22.00
2019-06-10T21:23:29.865Z,22.43
2019-06-10T21:25:58.086Z,22.13
2019-06-10T21:28:26.321Z,22.93
2019-06-10T21:30:58.685Z,22.43
2019-06-10T21:33:24.461Z,22.30
2019-06-10T21:35:54.832Z,23.83
2019-06-10T21:38:23.134Z,23.63
2019-06-10T21:40:53.910Z,23.97
2019-06-10T21:43:22.375Z,24.27
2019-06-10T21:45:57.052Z,24.43
2019-06-10T21:48:22.829Z,25.00
2019-06-10T21:50:54.290Z,24.43
2019-06-10T21:53:22.295Z,24.37
2019-06-10T21:55:51.408Z,25.43
2019-06-10T21:58:22.544Z,23.53
2019-06-10T22:01:01.176Z,25.83
2019-06-10T22:03:23.218Z,24.73
2019-06-10T22:05:51.865Z,25.90
2019-06-10T22:08:22.973Z,26.03
2019-06-10T22:10:54.600Z,27.50
2019-06-10T22:13:22.386Z,26.30
2019-06-10T22:15:53.439Z,26.17
2019-06-10T22:18:22.814Z,26.30
2019-06-10T22:20:51.564Z,26.50
2019-06-10T22:23:20.507Z,27.00
2019-06-10T22:25:48.811Z,26.37
2019-06-10T22:28:17.087Z,27.67
2019-06-10T22:30:45.334Z,27.90
2019-06-10T22:33:13.588Z,30.60
2019-06-10T22:35:42.499Z,32.00
2019-06-10T22:38:12.982Z,29.47
2019-06-10T22:40:42.682Z,30.97
2019-06-10T22:43:12.786Z,31.03
2019-06-10T22:45:42.380Z,31.97
2019-06-10T22:48:12.086Z,31.70
2019-06-10T22:50:43.495Z,30.40
2019-06-10T22:53:12.568Z,31.33
2019-06-10T22:55:43.203Z,33.03
2019-06-10T22:58:14.225Z,33.13
2019-06-10T23:00:43.526Z,33.87
2019-06-10T23:03:13.110Z,34.40
2019-06-10T23:05:43.382Z,36.63
2019-06-10T23:08:12.653Z,34.83
2019-06-10T23:10:42.981Z,34.47
2019-06-10T23:13:12.791Z,33.10
2019-06-10T23:15:42.928Z,33.93
2019-06-10T23:18:12.720Z,34.57
2019-06-10T23:20:42.841Z,35.27
2019-06-10T23:23:12.670Z,38.17
2019-06-10T23:25:42.720Z,37.90
2019-06-10T23:28:12.730Z,39.80
2019-06-10T23:30:42.551Z,39.47
2019-06-10T23:33:12.428Z,37.77
2019-06-10T23:35:42.659Z,38.17
2019-06-10T23:38:12.887Z,37.47
2019-06-10T23:40:42.486Z,37.37
2019-06-10T23:43:10.102Z,36.40
2019-06-10T23:45:38.316Z,36.90
2019-06-10T23:48:06.551Z,37.33
2019-06-10T23:50:35.278Z,36.17
2019-06-10T23:53:07.564Z,37.80
2019-06-10T23:55:33.401Z,34.87
2019-06-10T23:58:02.484Z,33.60
